| time (UTC) | temp F | wind direction | speed MPH | gust MPH | rain 1hr in | rain 24hr in | rain mn in | humidity % | barometer mb |
| 20260507150003 | 58 | 295 | 1.0 | 8.0 | 0.00 | 0.24 | 0.02 | 57 | 1007.1 |
| 20260507145504 | 58 | 295 | 1.0 | 8.0 | 0.00 | 0.24 | 0.02 | 55 | 1007.2 |
| 20260507145004 | 58 | 297 | 0.0 | 2.0 | 0.00 | 0.24 | 0.02 | 59 | 1007.2 |
| 20260507144503 | 58 | 297 | 0.0 | 2.0 | 0.00 | 0.24 | 0.02 | 57 | 1007.3 |
| 20260507143504 | 58 | 298 | 0.0 | 3.0 | 0.00 | 0.24 | 0.02 | 57 | 1007.3 |
| 20260507142503 | 58 | 0 | 0.0 | 0.0 | 0.00 | 0.24 | 0.02 | 60 | 1007.2 |
| 20260507141004 | 57 | 308 | 1.0 | 4.0 | 0.00 | 0.24 | 0.02 | 58 | 1007.1 |
| 20260507140503 | 57 | 300 | 1.0 | 5.0 | 0.00 | 0.24 | 0.02 | 59 | 1007.1 |
| 20260507140004 | 56 | 293 | 0.0 | 5.0 | 0.00 | 0.24 | 0.02 | 60 | 1007.2 |
| 20260507135503 | 56 | 313 | 0.0 | 5.0 | 0.00 | 0.24 | 0.02 | 61 | 1007.2 |
| 20260507135003 | 55 | 317 | 0.0 | 3.0 | 0.00 | 0.24 | 0.02 | 64 | 1007.2 |
| 20260507134503 | 55 | 0 | 0.0 | 0.0 | 0.00 | 0.24 | 0.02 | 62 | 1007.1 |
| 20260507134003 | 55 | 0 | 0.0 | 0.0 | 0.00 | 0.24 | 0.02 | 61 | 1007.0 |
| 20260507133503 | 54 | 325 | 0.0 | 4.0 | 0.00 | 0.24 | 0.02 | 61 | 1007.0 |
| 20260507133003 | 54 | 325 | 1.0 | 4.0 | 0.00 | 0.24 | 0.02 | 62 | 1007.3 |
| 20260507132503 | 54 | 326 | 1.0 | 5.0 | 0.00 | 0.24 | 0.02 | 64 | 1007.3 |
| 20260507132003 | 53 | 326 | 1.0 | 5.0 | 0.00 | 0.24 | 0.02 | 65 | 1007.4 |
| 20260507131503 | 53 | 0 | 0.0 | 0.0 | 0.00 | 0.24 | 0.02 | 66 | 1007.4 |
| 20260507131003 | 52 | 332 | 0.0 | 1.0 | 0.00 | 0.24 | 0.02 | 69 | 1007.4 |
| 20260507130503 | 52 | 336 | 0.0 | 4.0 | 0.00 | 0.24 | 0.02 | 69 | 1007.4 |
| 20260507125503 | 52 | 321 | 1.0 | 5.0 | 0.00 | 0.24 | 0.02 | 74 | 1007.4 |
| 20260507125003 | 51 | 321 | 1.0 | 5.0 | 0.00 | 0.24 | 0.02 | 75 | 1007.5 |
| 20260507124504 | 51 | 323 | 0.0 | 4.0 | 0.00 | 0.24 | 0.02 | 77 | 1007.6 |
| 20260507124003 | 50 | 0 | 0.0 | 0.0 | 0.00 | 0.24 | 0.02 | 80 | 1007.5 |
| 20260507123504 | 50 | 0 | 0.0 | 0.0 | 0.00 | 0.24 | 0.02 | 81 | 1007.6 |
| 20260507123003 | 50 | 325 | 0.0 | 3.0 | 0.00 | 0.24 | 0.02 | 83 | 1007.6 |
| 20260507122503 | 50 | 325 | 0.0 | 3.0 | 0.00 | 0.24 | 0.02 | 84 | 1007.8 |
| 20260507121004 | 49 | 0 | 0.0 | 0.0 | 0.00 | 0.24 | 0.02 | 85 | 1007.8 |
| 20260507120003 | 49 | 0 | 0.0 | 0.0 | 0.00 | 0.24 | 0.02 | 87 | 1007.8 |
| 20260507115503 | 49 | 0 | 0.0 | 0.0 | 0.00 | 0.24 | 0.02 | 87 | 1007.7 |
| 20260507115004 | 48 | 0 | 0.0 | 0.0 | 0.00 | 0.24 | 0.02 | 87 | 1007.7 |
| 20260507114503 | 48 | 0 | 0.0 | 0.0 | 0.00 | 0.24 | 0.02 | 88 | 1007.6 |
| 20260507114004 | 48 | 0 | 0.0 | 0.0 | 0.00 | 0.24 | 0.02 | 88 | 1007.7 |
| 20260507113503 | 48 | 0 | 0.0 | 0.0 | 0.00 | 0.24 | 0.02 | 89 | 1007.7 |
| 20260507113004 | 48 | 0 | 0.0 | 0.0 | 0.00 | 0.24 | 0.02 | 89 | 1007.4 |
| 20260507112503 | 48 | 0 | 0.0 | 0.0 | 0.00 | 0.24 | 0.02 | 89 | 1007.5 |
| 20260507111504 | 48 | 0 | 0.0 | 0.0 | 0.00 | 0.24 | 0.02 | 89 | 1007.4 |
| 20260507111003 | 48 | 0 | 0.0 | 0.0 | 0.00 | 0.24 | 0.02 | 89 | 1007.4 |
| 20260507110503 | 48 | 0 | 0.0 | 0.0 | 0.00 | 0.24 | 0.02 | 89 | 1007.4 |
| 20260507110003 | 48 | 0 | 0.0 | 0.0 | 0.00 | 0.24 | 0.02 | 89 | 1007.4 |
| 20260507104504 | 48 | 0 | 0.0 | 0.0 | 0.00 | 0.24 | 0.02 | 89 | 1007.3 |
| 20260507104004 | 48 | 0 | 0.0 | 0.0 | 0.00 | 0.24 | 0.02 | 89 | 1006.9 |
| 20260507103503 | 48 | 0 | 0.0 | 0.0 | 0.00 | 0.24 | 0.02 | 88 | 1007.0 |
| 20260507103004 | 48 | 0 | 0.0 | 0.0 | 0.00 | 0.24 | 0.02 | 88 | 1006.8 |
| 20260507102503 | 48 | 0 | 0.0 | 0.0 | 0.00 | 0.24 | 0.02 | 88 | 1007.0 |
| 20260507102004 | 48 | 0 | 0.0 | 0.0 | 0.00 | 0.24 | 0.02 | 88 | 1006.8 |
| 20260507101503 | 48 | 0 | 0.0 | 0.0 | 0.00 | 0.24 | 0.02 | 88 | 1006.8 |
| 20260507101003 | 48 | 0 | 0.0 | 0.0 | 0.00 | 0.24 | 0.02 | 88 | 1006.8 |
| 20260507100003 | 48 | 0 | 0.0 | 0.0 | 0.00 | 0.24 | 0.02 | 89 | 1006.8 |
| 20260507095004 | 48 | 0 | 0.0 | 0.0 | 0.00 | 0.24 | 0.02 | 89 | 1006.8 |
| 20260507094503 | 48 | 0 | 0.0 | 0.0 | 0.00 | 0.24 | 0.02 | 89 | 1007.3 |
| 20260507094004 | 49 | 0 | 0.0 | 0.0 | 0.00 | 0.24 | 0.02 | 89 | 1007.0 |
| 20260507093503 | 49 | 0 | 0.0 | 0.0 | 0.00 | 0.24 | 0.02 | 89 | 1007.1 |
| 20260507093003 | 49 | 0 | 0.0 | 0.0 | 0.01 | 0.24 | 0.02 | 89 | 1007.1 |
| 20260507092504 | 49 | 0 | 0.0 | 0.0 | 0.01 | 0.24 | 0.02 | 89 | 1007.2 |
| 20260507092003 | 49 | 0 | 0.0 | 0.0 | 0.01 | 0.24 | 0.02 | 89 | 1006.9 |
| 20260507091503 | 49 | 0 | 0.0 | 0.0 | 0.01 | 0.24 | 0.02 | 89 | 1007.1 |
| 20260507091003 | 49 | 0 | 0.0 | 0.0 | 0.01 | 0.24 | 0.02 | 89 | 1007.2 |
| 20260507090503 | 49 | 0 | 0.0 | 0.0 | 0.01 | 0.24 | 0.02 | 89 | 1007.3 |
| 20260507085503 | 50 | 0 | 0.0 | 0.0 | 0.01 | 0.24 | 0.02 | 89 | 1006.8 |
| 20260507085003 | 50 | 0 | 0.0 | 0.0 | 0.02 | 0.24 | 0.02 | 89 | 1006.9 |
| 20260507084503 | 50 | 0 | 0.0 | 0.0 | 0.02 | 0.24 | 0.02 | 89 | 1006.8 |
| 20260507084003 | 50 | 0 | 0.0 | 0.0 | 0.02 | 0.24 | 0.02 | 89 | 1007.3 |
| 20260507083004 | 50 | 0 | 0.0 | 0.0 | 0.01 | 0.23 | 0.01 | 89 | 1006.8 |
| 20260507082503 | 50 | 0 | 0.0 | 0.0 | 0.01 | 0.23 | 0.01 | 89 | 1006.7 |
| 20260507082003 | 50 | 0 | 0.0 | 0.0 | 0.01 | 0.23 | 0.01 | 89 | 1006.7 |
| 20260507081503 | 50 | 0 | 0.0 | 0.0 | 0.01 | 0.23 | 0.01 | 89 | 1006.8 |
| 20260507080503 | 50 | 0 | 0.0 | 0.0 | 0.01 | 0.23 | 0.01 | 89 | 1006.7 |
| 20260507080003 | 50 | 0 | 0.0 | 0.0 | 0.01 | 0.23 | 0.01 | 89 | 1006.3 |
| 20260507075503 | 50 | 0 | 0.0 | 0.0 | 0.01 | 0.23 | 0.01 | 89 | 1006.8 |
| 20260507075003 | 50 | 0 | 0.0 | 0.0 | 0.00 | 0.22 | 0.00 | 90 | 1006.8 |
| 20260507074504 | 50 | 0 | 0.0 | 0.0 | 0.00 | 0.22 | 0.00 | 90 | 1006.7 |
| 20260507074003 | 51 | 0 | 0.0 | 0.0 | 0.00 | 0.22 | 0.00 | 90 | 1006.9 |
| 20260507073503 | 51 | 0 | 0.0 | 0.0 | 0.00 | 0.22 | 0.00 | 90 | 1006.9 |
| 20260507073004 | 51 | 0 | 0.0 | 0.0 | 0.00 | 0.22 | 0.00 | 90 | 1006.7 |
| 20260507072504 | 51 | 0 | 0.0 | 0.0 | 0.00 | 0.22 | 0.00 | 90 | 1006.3 |
| 20260507072003 | 51 | 0 | 0.0 | 0.0 | 0.00 | 0.22 | 0.00 | 90 | 1006.3 |
| 20260507071504 | 51 | 0 | 0.0 | 0.0 | 0.00 | 0.22 | 0.00 | 90 | 1006.3 |
| 20260507071004 | 51 | 0 | 0.0 | 0.0 | 0.00 | 0.22 | 0.00 | 90 | 1006.1 |
| 20260507065003 | 51 | 0 | 0.0 | 0.0 | 0.00 | 0.22 | 0.00 | 90 | 1006.2 |
| 20260507064504 | 51 | 0 | 0.0 | 0.0 | 0.00 | 0.22 | 0.00 | 90 | 1005.8 |
| 20260507064003 | 52 | 0 | 0.0 | 0.0 | 0.00 | 0.22 | 0.00 | 90 | 1006.2 |
| 20260507063504 | 52 | 0 | 0.0 | 0.0 | 0.00 | 0.22 | 0.00 | 90 | 1006.3 |
| 20260507063003 | 52 | 0 | 0.0 | 0.0 | 0.00 | 0.22 | 0.00 | 90 | 1006.0 |
| 20260507062503 | 52 | 0 | 0.0 | 0.0 | 0.00 | 0.22 | 0.00 | 90 | 1005.9 |
| 20260507062003 | 52 | 0 | 0.0 | 0.0 | 0.00 | 0.22 | 0.00 | 90 | 1005.9 |
| 20260507061503 | 52 | 0 | 0.0 | 0.0 | 0.00 | 0.22 | 0.00 | 90 | 1006.0 |
| 20260507061003 | 52 | 0 | 0.0 | 0.0 | 0.00 | 0.22 | 0.00 | 90 | 1006.0 |
| 20260507060503 | 52 | 0 | 0.0 | 0.0 | 0.00 | 0.22 | 0.00 | 90 | 1006.1 |
| 20260507060004 | 52 | 0 | 0.0 | 0.0 | 0.00 | 0.22 | 0.00 | 90 | 1006.1 |
| 20260507055504 | 52 | 0 | 0.0 | 0.0 | 0.00 | 0.22 | 0.00 | 90 | 1006.1 |
| 20260507055003 | 52 | 0 | 0.0 | 0.0 | 0.00 | 0.22 | 0.00 | 90 | 1006.3 |
| 20260507054504 | 52 | 0 | 0.0 | 0.0 | 0.00 | 0.22 | 0.00 | 90 | 1006.4 |
| 20260507054003 | 53 | 0 | 0.0 | 0.0 | 0.00 | 0.22 | 0.00 | 90 | 1006.6 |
| 20260507053504 | 53 | 0 | 0.0 | 0.0 | 0.00 | 0.22 | 0.00 | 90 | 1006.7 |
| 20260507053004 | 53 | 0 | 0.0 | 0.0 | 0.00 | 0.22 | 0.00 | 90 | 1006.6 |
| 20260507051503 | 53 | 0 | 0.0 | 0.0 | 0.00 | 0.22 | 0.00 | 91 | 1006.4 |
| 20260507051003 | 53 | 0 | 0.0 | 0.0 | 0.00 | 0.22 | 0.00 | 91 | 1006.8 |
| 20260507050503 | 53 | 0 | 0.0 | 0.0 | 0.00 | 0.22 | 0.00 | 91 | 1006.7 |
| 20260507050003 | 54 | 0 | 0.0 | 0.0 | 0.00 | 0.22 | 0.00 | 91 | 1006.4 |
| 20260507045504 | 54 | 314 | 0.0 | 1.0 | 0.00 | 0.22 | 0.00 | 91 | 1006.3 |
| 20260507045003 | 54 | 314 | 0.0 | 3.0 | 0.02 | 0.22 | 0.00 | 91 | 1006.3 |
| 20260507044503 | 54 | 318 | 0.0 | 4.0 | 0.02 | 0.22 | 0.00 | 91 | 1006.3 |
| 20260507043503 | 54 | 0 | 0.0 | 0.0 | 0.02 | 0.22 | 0.00 | 91 | 1006.3 |
| 20260507043003 | 55 | 0 | 0.0 | 0.0 | 0.02 | 0.22 | 0.00 | 91 | 1006.3 |
| 20260507042003 | 55 | 323 | 0.0 | 2.0 | 0.02 | 0.22 | 0.00 | 91 | 1006.3 |
| 20260507041503 | 55 | 324 | 0.0 | 2.0 | 0.02 | 0.22 | 0.00 | 91 | 1006.3 |
| 20260507041003 | 56 | 318 | 0.0 | 3.0 | 0.02 | 0.22 | 0.00 | 91 | 1006.4 |
| 20260507040503 | 56 | 318 | 1.0 | 7.0 | 0.02 | 0.22 | 0.00 | 91 | 1006.4 |
| 20260507040005 | 56 | 317 | 1.0 | 7.0 | 0.02 | 0.22 | 0.00 | 91 | 1006.3 |
| 20260507035003 | 57 | 0 | 0.0 | 0.0 | 0.01 | 0.20 | 0.20 | 92 | 1006.3 |
| 20260507034503 | 57 | 0 | 0.0 | 0.0 | 0.01 | 0.20 | 0.20 | 92 | 1006.0 |
| 20260507034003 | 57 | 0 | 0.0 | 0.0 | 0.01 | 0.20 | 0.20 | 92 | 1005.8 |
| 20260507033503 | 57 | 313 | 0.0 | 3.0 | 0.01 | 0.20 | 0.20 | 92 | 1005.8 |
| 20260507032504 | 58 | 311 | 0.0 | 2.0 | 0.01 | 0.20 | 0.20 | 93 | 1005.8 |
| 20260507032003 | 58 | 317 | 1.0 | 6.0 | 0.01 | 0.20 | 0.20 | 93 | 1005.7 |
| 20260507031504 | 58 | 309 | 1.0 | 6.0 | 0.01 | 0.20 | 0.20 | 94 | 1005.5 |
| 20260507031003 | 59 | 303 | 2.0 | 6.0 | 0.01 | 0.20 | 0.20 | 94 | 1005.3 |
| 20260507030503 | 59 | 305 | 1.0 | 6.0 | 0.01 | 0.20 | 0.20 | 95 | 1005.6 |
| 20260507030004 | 59 | 0 | 0.0 | 0.0 | 0.00 | 0.19 | 0.19 | 95 | 1005.4 |
| 20260507025503 | 59 | 0 | 0.0 | 0.0 | 0.00 | 0.19 | 0.19 | 95 | 1005.3 |
| 20260507025004 | 59 | 0 | 0.0 | 0.0 | 0.00 | 0.19 | 0.19 | 95 | 1005.4 |
| 20260507024504 | 59 | 220 | 0.0 | 2.0 | 0.00 | 0.19 | 0.19 | 95 | 1005.2 |
| 20260507024003 | 59 | 220 | 0.0 | 2.0 | 0.00 | 0.19 | 0.19 | 95 | 1005.2 |
| 20260507023504 | 59 | 203 | 0.0 | 4.0 | 0.00 | 0.19 | 0.19 | 95 | 1005.2 |
| 20260507023003 | 59 | 201 | 0.0 | 4.0 | 0.00 | 0.19 | 0.19 | 94 | 1005.3 |
| 20260507021503 | 59 | 0 | 0.0 | 0.0 | 0.00 | 0.19 | 0.19 | 94 | 1004.9 |
| 20260507021003 | 59 | 0 | 0.0 | 0.0 | 0.00 | 0.19 | 0.19 | 94 | 1004.7 |
| 20260507020503 | 59 | 249 | 0.0 | 6.0 | 0.00 | 0.19 | 0.19 | 94 | 1004.7 |
| 20260507020004 | 59 | 244 | 0.0 | 6.0 | 0.00 | 0.19 | 0.19 | 94 | 1004.9 |
| 20260507015014 | 59 | 228 | 0.0 | 5.0 | 0.00 | 0.19 | 0.19 | 94 | 1004.8 |
| 20260507014503 | 59 | 202 | 0.0 | 3.0 | 0.00 | 0.19 | 0.19 | 94 | 1004.9 |
| 20260507014004 | 59 | 182 | 1.0 | 6.0 | 0.00 | 0.19 | 0.19 | 94 | 1005.1 |
| 20260507013507 | 59 | 196 | 1.0 | 6.0 | 0.00 | 0.19 | 0.19 | 94 | 1005.1 |
| 20260507013004 | 59 | 209 | 1.0 | 7.0 | 0.00 | 0.19 | 0.19 | 94 | 1004.9 |
| 20260507012003 | 59 | 182 | 2.0 | 6.0 | 0.00 | 0.19 | 0.19 | 94 | 1005.1 |
| 20260507011504 | 59 | 174 | 1.0 | 6.0 | 0.00 | 0.19 | 0.19 | 94 | 1005.1 |
| 20260507010503 | 59 | 182 | 1.0 | 8.0 | 0.00 | 0.19 | 0.19 | 94 | 1005.1 |
| 20260507010003 | 59 | 215 | 0.0 | 1.0 | 0.00 | 0.19 | 0.19 | 94 | 1005.2 |
| 20260507005503 | 59 | 159 | 0.0 | 6.0 | 0.00 | 0.19 | 0.19 | 94 | 1005.2 |
| 20260507005008 | 59 | 163 | 0.0 | 6.0 | 0.00 | 0.19 | 0.19 | 94 | 1005.2 |
| 20260507004512 | 59 | 166 | 1.0 | 5.0 | 0.00 | 0.19 | 0.19 | 94 | 1005.2 |
| 20260507003503 | 59 | 175 | 0.0 | 6.0 | 0.00 | 0.19 | 0.19 | 94 | 1005.0 |
| 20260507003003 | 59 | 152 | 0.0 | 4.0 | 0.00 | 0.19 | 0.19 | 94 | 1004.8 |
| 20260507002504 | 59 | 176 | 1.0 | 5.0 | 0.00 | 0.19 | 0.19 | 94 | 1004.8 |
| 20260507002003 | 59 | 194 | 1.0 | 6.0 | 0.00 | 0.19 | 0.19 | 94 | 1004.8 |
| 20260507001504 | 59 | 191 | 1.0 | 7.0 | 0.00 | 0.19 | 0.19 | 94 | 1004.8 |
| 20260507001003 | 59 | 174 | 1.0 | 7.0 | 0.01 | 0.19 | 0.19 | 94 | 1004.9 |
| 20260507000003 | 59 | 159 | 0.0 | 6.0 | 0.03 | 0.19 | 0.19 | 94 | 1004.7 |
| 20260506235503 | 59 | 156 | 0.0 | 6.0 | 0.04 | 0.19 | 0.19 | 94 | 1004.7 |
| 20260506234004 | 60 | 159 | 0.0 | 6.0 | 0.06 | 0.19 | 0.19 | 94 | 1004.7 |
| 20260506233004 | 60 | 193 | 0.0 | 6.0 | 0.07 | 0.19 | 0.19 | 93 | 1004.7 |
| 20260506232503 | 60 | 193 | 0.0 | 6.0 | 0.07 | 0.19 | 0.19 | 93 | 1004.7 |
| 20260506232003 | 60 | 0 | 0.0 | 0.0 | 0.08 | 0.19 | 0.19 | 93 | 1004.7 |
| 20260506231003 | 60 | 161 | 1.0 | 9.0 | 0.08 | 0.18 | 0.18 | 93 | 1004.7 |
| 20260506230004 | 60 | 170 | 1.0 | 7.0 | 0.06 | 0.16 | 0.16 | 93 | 1004.8 |
| 20260506225004 | 60 | 172 | 0.0 | 2.0 | 0.07 | 0.15 | 0.15 | 92 | 1005.1 |
| 20260506224503 | 60 | 192 | 1.0 | 4.0 | 0.06 | 0.14 | 0.14 | 92 | 1005.1 |
| 20260506224003 | 60 | 179 | 1.0 | 7.0 | 0.05 | 0.13 | 0.13 | 92 | 1005.0 |
| 20260506223503 | 60 | 171 | 1.0 | 7.0 | 0.04 | 0.12 | 0.12 | 92 | 1005.0 |
| 20260506223004 | 60 | 181 | 1.0 | 9.0 | 0.04 | 0.12 | 0.12 | 92 | 1004.9 |
| 20260506222503 | 60 | 178 | 1.0 | 9.0 | 0.04 | 0.12 | 0.12 | 92 | 1005.1 |
| 20260506222003 | 60 | 166 | 1.0 | 6.0 | 0.03 | 0.11 | 0.11 | 92 | 1005.1 |
| 20260506221504 | 60 | 161 | 1.0 | 9.0 | 0.02 | 0.10 | 0.10 | 92 | 1005.2 |
| 20260506221003 | 60 | 159 | 2.0 | 9.0 | 0.02 | 0.10 | 0.10 | 91 | 1005.2 |
| 20260506220503 | 60 | 160 | 2.0 | 9.0 | 0.03 | 0.10 | 0.10 | 91 | 1005.2 |
| 20260506220003 | 60 | 166 | 1.0 | 13.0 | 0.03 | 0.10 | 0.10 | 91 | 1005.2 |
| 20260506215003 | 60 | 145 | 1.0 | 9.0 | 0.01 | 0.08 | 0.08 | 91 | 1005.3 |
| 20260506214004 | 60 | 168 | 2.0 | 12.0 | 0.02 | 0.08 | 0.08 | 90 | 1005.2 |
| 20260506213503 | 60 | 165 | 2.0 | 12.0 | 0.02 | 0.08 | 0.08 | 90 | 1005.2 |
| 20260506213004 | 61 | 169 | 1.0 | 9.0 | 0.02 | 0.08 | 0.08 | 90 | 1005.2 |
| 20260506211503 | 61 | 163 | 1.0 | 14.0 | 0.03 | 0.08 | 0.08 | 89 | 1005.5 |
| 20260506211003 | 61 | 179 | 0.0 | 14.0 | 0.04 | 0.08 | 0.08 | 89 | 1005.6 |
| 20260506210504 | 61 | 171 | 2.0 | 15.0 | 0.03 | 0.07 | 0.07 | 89 | 1005.6 |
| 20260506210003 | 61 | 166 | 2.0 | 15.0 | 0.03 | 0.07 | 0.07 | 89 | 1005.7 |
| 20260506205503 | 61 | 163 | 1.0 | 12.0 | 0.03 | 0.07 | 0.07 | 89 | 1005.8 |
| 20260506205004 | 62 | 166 | 2.0 | 12.0 | 0.03 | 0.07 | 0.07 | 88 | 1005.8 |
| 20260506204504 | 62 | 174 | 2.0 | 11.0 | 0.02 | 0.06 | 0.06 | 88 | 1005.8 |
| 20260506204003 | 62 | 184 | 1.0 | 9.0 | 0.02 | 0.06 | 0.06 | 87 | 1005.8 |
| 20260506203503 | 62 | 199 | 1.0 | 7.0 | 0.02 | 0.06 | 0.06 | 87 | 1005.8 |
| 20260506203004 | 63 | 178 | 1.0 | 9.0 | 0.02 | 0.06 | 0.06 | 87 | 1005.8 |
| 20260506202503 | 63 | 172 | 1.0 | 9.0 | 0.01 | 0.05 | 0.05 | 87 | 1005.8 |
| 20260506201504 | 63 | 172 | 1.0 | 7.0 | 0.02 | 0.05 | 0.05 | 85 | 1005.8 |
| 20260506200504 | 64 | 154 | 0.0 | 3.0 | 0.02 | 0.04 | 0.04 | 84 | 1005.8 |
| 20260506200004 | 64 | 162 | 1.0 | 6.0 | 0.02 | 0.04 | 0.04 | 84 | 1005.8 |
| 20260506195003 | 64 | 185 | 1.0 | 11.0 | 0.03 | 0.04 | 0.04 | 83 | 1005.8 |
| 20260506194002 | 65 | 169 | 0.0 | 2.0 | 0.04 | 0.04 | 0.04 | 82 | 1005.8 |
| 20260506193503 | 65 | 194 | 1.0 | 9.0 | 0.04 | 0.04 | 0.04 | 81 | 1005.8 |
| 20260506193002 | 65 | 192 | 1.0 | 9.0 | 0.04 | 0.04 | 0.04 | 80 | 1005.8 |
| 20260506192502 | 66 | 175 | 0.0 | 3.0 | 0.03 | 0.03 | 0.03 | 80 | 1005.8 |
| 20260506192003 | 66 | 133 | 0.0 | 2.0 | 0.03 | 0.03 | 0.03 | 79 | 1005.9 |
| 20260506191502 | 66 | 165 | 0.0 | 9.0 | 0.03 | 0.03 | 0.03 | 77 | 1005.7 |
| 20260506191002 | 67 | 168 | 0.0 | 9.0 | 0.02 | 0.02 | 0.02 | 76 | 1005.8 |
| 20260506190502 | 67 | 182 | 0.0 | 2.0 | 0.02 | 0.02 | 0.02 | 75 | 1005.8 |
| 20260506190002 | 68 | 193 | 0.0 | 2.0 | 0.02 | 0.02 | 0.02 | 74 | 1005.9 |
| 20260506185502 | 68 | 0 | 0.0 | 0.0 | 0.02 | 0.02 | 0.02 | 73 | 1005.9 |
| 20260506185002 | 68 | 158 | 0.0 | 3.0 | 0.01 | 0.01 | 0.01 | 71 | 1006.1 |
| 20260506184502 | 69 | 173 | 0.0 | 6.0 | 0.01 | 0.01 | 0.01 | 68 | 1006.1 |
| 20260506184002 | 69 | 211 | 0.0 | 6.0 | 0.00 | 0.00 | 0.00 | 68 | 1006.1 |
| 20260506183503 | 70 | 199 | 1.0 | 6.0 | 0.00 | 0.00 | 0.00 | 66 | 1006.0 |
| 20260506182502 | 70 | 236 | 1.0 | 15.0 | 0.00 | 0.00 | 0.00 | 63 | 1006.2 |
| 20260506181502 | 71 | 203 | 2.0 | 15.0 | 0.00 | 0.00 | 0.00 | 59 | 1006.3 |
| 20260506181002 | 71 | 211 | 2.0 | 15.0 | 0.00 | 0.00 | 0.00 | 58 | 1006.2 |
| 20260506180502 | 72 | 207 | 2.0 | 13.0 | 0.00 | 0.00 | 0.00 | 56 | 1006.2 |
| 20260506180002 | 72 | 216 | 2.0 | 13.0 | 0.00 | 0.00 | 0.00 | 55 | 1006.2 |
| 20260506175502 | 72 | 195 | 3.0 | 23.0 | 0.00 | 0.00 | 0.00 | 53 | 1006.2 |
| 20260506174502 | 73 | 193 | 3.0 | 15.0 | 0.00 | 0.00 | 0.00 | 51 | 1006.3 |
| 20260506173502 | 73 | 187 | 3.0 | 16.0 | 0.00 | 0.00 | 0.00 | 50 | 1006.0 |
| 20260506173003 | 73 | 183 | 4.0 | 16.0 | 0.00 | 0.00 | 0.00 | 51 | 1006.0 |
| 20260506172502 | 73 | 183 | 4.0 | 14.0 | 0.00 | 0.00 | 0.00 | 51 | 1006.0 |
| 20260506172002 | 73 | 182 | 4.0 | 12.0 | 0.00 | 0.00 | 0.00 | 51 | 1006.1 |
| 20260506171502 | 73 | 175 | 3.0 | 13.0 | 0.00 | 0.00 | 0.00 | 51 | 1006.2 |
| 20260506171002 | 73 | 167 | 3.0 | 14.0 | 0.00 | 0.00 | 0.00 | 51 | 1006.3 |
| 20260506170502 | 73 | 184 | 3.0 | 20.0 | 0.00 | 0.00 | 0.00 | 52 | 1006.3 |
| 20260506170003 | 73 | 201 | 1.0 | 20.0 | 0.00 | 0.00 | 0.00 | 54 | 1006.3 |
| 20260506165503 | 72 | 178 | 2.0 | 11.0 | 0.00 | 0.00 | 0.00 | 56 | 1006.5 |
| 20260506165002 | 72 | 174 | 3.0 | 13.0 | 0.00 | 0.00 | 0.00 | 54 | 1006.5 |
| 20260506164503 | 72 | 177 | 3.0 | 13.0 | 0.00 | 0.00 | 0.00 | 55 | 1006.5 |
| 20260506164003 | 72 | 179 | 4.0 | 12.0 | 0.00 | 0.00 | 0.00 | 54 | 1006.6 |
| 20260506163502 | 72 | 174 | 3.0 | 11.0 | 0.00 | 0.00 | 0.00 | 54 | 1006.8 |
| 20260506163002 | 71 | 178 | 3.0 | 16.0 | 0.00 | 0.00 | 0.00 | 55 | 1006.8 |
| 20260506162502 | 71 | 186 | 3.0 | 16.0 | 0.00 | 0.00 | 0.00 | 55 | 1006.9 |
| 20260506162002 | 71 | 182 | 1.0 | 16.0 | 0.00 | 0.00 | 0.00 | 56 | 1006.9 |
| 20260506161502 | 71 | 185 | 2.0 | 9.0 | 0.00 | 0.00 | 0.00 | 57 | 1006.9 |
| 20260506161002 | 71 | 200 | 2.0 | 10.0 | 0.00 | 0.00 | 0.00 | 57 | 1007.1 |
| 20260506160502 | 71 | 194 | 1.0 | 10.0 | 0.00 | 0.00 | 0.00 | 57 | 1007.2 |
| 20260506160002 | 70 | 173 | 2.0 | 13.0 | 0.00 | 0.00 | 0.00 | 57 | 1007.4 |
| 20260506155502 | 70 | 178 | 2.0 | 13.0 | 0.00 | 0.00 | 0.00 | 58 | 1007.4 |
| 20260506155003 | 70 | 176 | 3.0 | 12.0 | 0.00 | 0.00 | 0.00 | 58 | 1007.6 |
| 20260506154002 | 70 | 167 | 1.0 | 11.0 | 0.00 | 0.00 | 0.00 | 58 | 1007.8 |
| 20260506153503 | 70 | 171 | 2.0 | 11.0 | 0.00 | 0.00 | 0.00 | 58 | 1007.8 |
| 20260506152503 | 71 | 212 | 3.0 | 17.0 | 0.00 | 0.00 | 0.00 | 57 | 1007.9 |
| 20260506152002 | 71 | 219 | 3.0 | 17.0 | 0.00 | 0.00 | 0.00 | 57 | 1007.9 |
| 20260506151002 | 71 | 175 | 4.0 | 13.0 | 0.00 | 0.00 | 0.00 | 57 | 1008.2 |
| 20260506150503 | 71 | 174 | 4.0 | 13.0 | 0.00 | 0.00 | 0.00 | 57 | 1007.9 |